ADDS METAR Data INFO
IDs: Format: Raw Decoded Include TAF

Data at: 1809 UTC 18 Feb 2018

KSKX 181756Z AUTO 23015G21KT 10SM CLR 08/M02 A2995 RMK AO2 SLP133 T00781022 10078 21050 58021 $
KSKX 181656Z AUTO 25010G14KT 220V280 10SM SCT020 06/00 A2998 RMK AO2 SLP151 T00560000 $
KSKX 181621Z AUTO 23010KT 210V280 10SM FEW010 04/00 A2999 RMK AO2 $
KSKX 181556Z AUTO 23009G15KT 10SM OVC010 03/00 A3001 RMK AO2 SLP155 T00330000 $
KSKX 181456Z AUTO 00000KT 10SM OVC012 01/M02 A3003 RMK AO2 SLP172 T00061022 55004 FZRANO $
KSKX 181433Z AUTO VRB03KT 10SM OVC014 M01/M04 A3003 RMK AO2 FZRANO $
KSKX 181356Z AUTO 31003KT 10SM OVC016 M05/M07 A3003 RMK AO2 SLP182 T10501072 FZRANO $
KSKX 181334Z AUTO 00000KT 10SM BKN018 02/M04 A3002 RMK AO2 FZRANO $
KSKX 181256Z AUTO 00000KT 10SM CLR M01/M04 A3003 RMK AO2 SLP167 T10111044 FZRANO $
KSKX 181156Z AUTO 05010KT 10SM FEW021 M03/M07 A3004 RMK AO2 SLP169 T10281067 10000 21056 56014 FZRANO $
KSKX 181056Z AUTO 00000KT 10SM CLR M02/M07 A3005 RMK AO2 SLP163 T10171067 FZRANO $
KSKX 180956Z AUTO 02007G16KT 340V050 10SM CLR M04/M08 A3008 RMK AO2 SLP181 T10391078 FZRANO $
KSKX 180856Z AUTO 00000KT 10SM CLR M03/M07 A3010 RMK AO2 SLP184 T10331072 58016 FZRANO $
KSKX 180756Z AUTO 07005KT 10SM CLR M02/M07 A3011 RMK AO2 SLP190 T10171067 FZRANO $
KSKX 180656Z AUTO 10003KT 10SM CLR M01/M06 A3014 RMK AO2 SLP202 T10111061 401111067 FZRANO $
KSKX 180556Z AUTO 00000KT 10SM CLR 00/M07 A3015 RMK AO2 SLP210 T00001067 10089 21011 58010 FZRANO $
KSKX 180456Z AUTO 13003KT 10SM CLR M01/M06 A3017 RMK AO2 SLP226 T10111061 FZRANO $
KSKX 180356Z AUTO 00000KT 10SM CLR 03/M07 A3019 RMK AO2 SLP226 T00281072 $
KSKX 180256Z AUTO 17003KT 10SM CLR 02/M08 A3019 RMK AO2 SLP236 T00221083 51007 FZRANO $
KSKX 180156Z AUTO 20007KT 10SM CLR 04/M08 A3019 RMK AO2 SLP241 T00391083 $
KSKX 180056Z AUTO 17006KT 10SM CLR 06/M09 A3018 RMK AO2 SLP235 T00561089 $
KSKX 172356Z AUTO 22010KT 10SM CLR 09/M10 A3017 RMK AO2 SLP212 T00891100 10111 20056 55000 $
KSKX 172256Z AUTO 22012KT 10SM CLR 11/M12 A3016 RMK AO2 SLP207 T01111122 $
KSKX 172156Z AUTO 24013KT 10SM CLR 11/M09 A3016 RMK AO2 SLP206 T01061094 $
KSKX 172056Z AUTO 23012KT 10SM CLR 11/M09 A3017 RMK AO2 SLP204 T01061089 58021 $
KSKX 171956Z AUTO 21008KT 10SM CLR 09/M08 A3020 RMK AO2 SLP220 T00891083 $
KSKX 171856Z AUTO 18005KT 10SM CLR 07/M09 A3024 RMK AO2 SLP233 T00721089 $
KSKX 171756Z AUTO VRB03G17KT 10SM CLR 06/M08 A3024 RMK AO2 SLP242 T00561078 10056 21067 50003 $
KSKX 171656Z AUTO 24005KT 10SM CLR 03/M06 A3025 RMK AO2 SLP249 T00331061 $
KSKX 171556Z AUTO 00000KT 10SM CLR 01/M04 A3024 RMK AO2 SLP250 T00111044 FZRANO $
KSKX 171456Z AUTO 09003KT 10SM CLR M01/M04 A3023 RMK AO2 SLP254 T10111044 52008 FZRANO $
KSKX 171356Z AUTO 07004KT 10SM CLR M06/M08 A3023 RMK AO2 SLP260 T10561078 FZRANO TSNO $
KSKX 171256Z AUTO 05006KT 10SM CLR M06/M08 A3021 RMK AO2 SLP254 T10611078 FZRANO $
KSKX 171156Z AUTO 24003KT 10SM CLR M03/M06 A3020 RMK AO2 SLP237 T10281061 10011 21050 51013 FZRANO $
KSKX 171056Z AUTO 00000KT 10SM CLR M04/M06 A3019 RMK AO2 SLP235 T10391061 FZRANO $
KSKX 170956Z AUTO 06004KT 10SM CLR M03/M05 A3018 RMK AO2 SLP228 T10281050 FZRANO $
KSKX 170856Z AUTO 00000KT 10SM CLR M01/M04 A3016 RMK AO2 SLP215 T10111039 51008 FZRANO $
KSKX 170756Z AUTO 00000KT 10SM CLR 00/M03 A3015 RMK AO2 SLP212 T00001033 FZRANO $
KSKX 170656Z AUTO 00000KT 10SM CLR 01/M03 A3014 RMK AO2 SLP206 T00061033 400501033 FZRANO $